Time;durP1;ratioP1;P1;durP2;ratioP2;P2;SDS_P1;SDS_P2;PMS_P1;PMS_P2;Temp;Humidity;BMP_temperature;BMP_pressure;BME280_temperature;BME280_humidity;BME280_pressure;Samples;Min_cycle;Max_cycle;Signal;HPM_P1;HPM_P2
2022/11/30 00:00:56;;;;;;;0.00;0.00;;;;;;;6.24;100.00;100999.81;6211342;23;20008;-76
2022/11/30 00:03:23;;;;;;;0.00;0.00;;;;;;;6.20;100.00;100988.56;6215133;23;20095;-78
2022/11/30 00:05:48;;;;;;;0.00;0.00;;;;;;;6.25;100.00;100993.31;6212552;23;19996;-77
2022/11/30 00:08:14;;;;;;;0.00;0.00;;;;;;;6.21;100.00;100994.84;6210884;23;20049;-77
2022/11/30 00:10:40;;;;;;;0.00;0.00;;;;;;;6.13;100.00;100985.06;6215013;23;20004;-75
2022/11/30 00:13:06;;;;;;;0.10;0.10;;;;;;;5.96;100.00;100982.06;6188520;23;20007;-76
2022/11/30 00:15:32;;;;;;;0.10;0.10;;;;;;;5.98;100.00;100987.31;6191560;23;20008;-77
2022/11/30 00:17:58;;;;;;;0.00;0.00;;;;;;;6.03;100.00;100991.03;6216773;23;20008;-77
2022/11/30 00:20:27;;;;;;;0.10;0.10;;;;;;;6.02;100.00;100986.66;6187967;23;20031;-79
2022/11/30 00:22:54;;;;;;;0.00;0.00;;;;;;;6.06;100.00;100998.72;6216760;23;20008;-77
2022/11/30 00:25:21;;;;;;;0.00;0.00;;;;;;;6.06;100.00;100998.72;6237528;23;20014;-76
2022/11/30 00:27:47;;;;;;;0.10;0.10;;;;;;;6.08;100.00;101002.03;6191312;23;20004;-77
2022/11/30 00:30:13;;;;;;;0.00;0.00;;;;;;;6.05;100.00;100999.78;6186046;23;20419;-80
2022/11/30 00:32:38;;;;;;;0.10;0.10;;;;;;;6.09;100.00;101003.72;6190972;23;20426;-77
2022/11/30 00:35:04;;;;;;;0.03;0.03;;;;;;;6.06;100.00;100997.88;6241079;23;20004;-77
2022/11/30 00:37:29;;;;;;;0.00;0.00;;;;;;;5.92;100.00;100978.13;6185773;23;20012;-77
2022/11/30 00:39:55;;;;;;;0.03;0.03;;;;;;;6.02;100.00;100996.69;6214799;23;20050;-76
2022/11/30 00:42:40;;;;;;;;;;;;;;;;;;;;;
2022/11/30 00:45:07;;;;;;;0.00;0.00;;;;;;;5.94;100.00;100989.59;6195983;23;20099;-75
2022/11/30 00:47:32;;;;;;;0.00;0.00;;;;;;;6.04;100.00;100998.09;6186142;23;20011;-76
2022/11/30 00:49:57;;;;;;;0.00;0.00;;;;;;;5.98;100.00;100982.72;6190492;23;20004;-76
2022/11/30 00:52:23;;;;;;;0.00;0.00;;;;;;;5.92;100.00;100983.56;6210980;23;20008;-75
2022/11/30 00:54:48;;;;;;;0.00;0.00;;;;;;;5.92;100.00;100976.25;6189253;23;20016;-76
2022/11/30 00:57:14;;;;;;;0.00;0.00;;;;;;;5.86;100.00;100970.88;6214458;23;20004;-76
2022/11/30 00:59:39;;;;;;;0.00;0.00;;;;;;;5.81;100.00;100968.00;6211766;23;20008;-76
2022/11/30 01:02:14;;;;;;;0.08;0.08;;;;;;;5.83;100.00;100982.19;6215772;23;20082;-74
2022/11/30 01:04:47;;;;;;;0.00;0.00;;;;;;;5.96;100.00;100982.06;6185099;23;20121;-74
2022/11/30 01:07:12;;;;;;;0.00;0.00;;;;;;;5.83;100.00;100971.34;6240887;23;20008;-73
2022/11/30 01:09:37;;;;;;;0.00;0.00;;;;;;;5.90;100.00;100972.94;6183914;23;20143;-73
2022/11/30 01:12:03;;;;;;;0.00;0.00;;;;;;;5.92;100.00;100987.09;6215605;23;20023;-75
2022/11/30 01:14:30;;;;;;;0.10;0.10;;;;;;;5.95;100.00;100991.25;6159930;23;20012;-75
2022/11/30 01:16:56;;;;;;;0.00;0.00;;;;;;;5.92;100.00;100976.25;6190172;23;20030;-75
2022/11/30 01:19:22;;;;;;;0.00;0.00;;;;;;;5.90;100.00;100981.06;6214151;23;20478;-76
2022/11/30 01:21:47;;;;;;;0.00;0.00;;;;;;;5.84;100.00;100972.97;6186590;23;20008;-76
2022/11/30 01:24:13;;;;;;;0.00;0.00;;;;;;;5.87;100.00;100980.66;6188640;23;20024;-77
2022/11/30 01:26:38;;;;;;;0.10;0.10;;;;;;;5.86;100.00;100965.47;6189125;23;20423;-76
2022/11/30 01:29:04;;;;;;;0.00;0.00;;;;;;;5.83;100.00;100974.03;6209858;23;20019;-79
2022/11/30 01:31:29;;;;;;;0.10;0.10;;;;;;;5.86;100.00;100979.84;6217352;23;20028;-77
2022/11/30 01:33:57;;;;;;;0.10;0.10;;;;;;;5.86;100.00;100981.75;6186261;23;20008;-77
2022/11/30 01:36:24;;;;;;;0.10;0.10;;;;;;;5.83;100.00;100976.75;6215766;23;20035;-77
2022/11/30 01:38:53;;;;;;;0.10;0.10;;;;;;;5.90;100.00;100977.53;6210744;23;20004;-77
2022/11/30 01:41:22;;;;;;;0.10;0.10;;;;;;;5.91;100.00;100985.47;6215509;23;20457;-76
2022/11/30 01:43:51;;;;;;;0.00;0.00;;;;;;;5.92;100.00;100980.84;6210833;23;20004;-76
2022/11/30 01:46:30;;;;;;;0.00;0.00;;;;;;;5.90;100.00;100980.25;6215373;23;20027;-77
2022/11/30 01:49:05;;;;;;;0.00;0.00;;;;;;;5.92;100.00;100975.44;6212312;23;20000;-78
2022/11/30 01:51:53;;;;;;;0.00;0.00;;;;;;;5.86;100.00;100982.56;6239454;23;20031;-77
2022/11/30 01:54:28;;;;;;;0.00;0.00;;;;;;;5.85;100.00;100986.31;6211734;23;20007;-77
2022/11/30 01:57:22;;;;;;;0.10;0.10;;;;;;;5.75;100.00;100985.97;6242410;23;20330;-77
2022/11/30 01:59:51;;;;;;;0.00;0.00;;;;;;;5.72;100.00;100986.44;6213871;23;20072;-76
2022/11/30 02:02:27;;;;;;;0.00;0.00;;;;;;;5.72;100.00;100990.00;6242514;23;20004;-75
2022/11/30 02:04:53;;;;;;;0.00;0.00;;;;;;;5.70;100.00;100989.38;6215135;23;20008;-76
2022/11/30 02:07:18;;;;;;;0.00;0.00;;;;;;;5.70;100.00;100983.13;6190445;23;20105;-77
2022/11/30 02:09:44;;;;;;;0.00;0.00;;;;;;;5.63;100.00;100977.72;6211314;23;20100;-78
2022/11/30 02:12:30;;;;;;;0.05;0.05;;;;;;;5.49;100.00;100976.16;6164915;23;20496;-77
2022/11/30 02:15:03;;;;;;;0.00;0.00;;;;;;;5.33;100.00;100978.34;6213867;23;20373;-77
2022/11/30 02:18:01;;;;;;;0.00;0.00;;;;;;;5.22;100.00;100979.84;6242828;23;20075;-77
2022/11/30 02:20:45;;;;;;;0.00;0.00;;;;;;;5.17;100.00;100989.69;6211771;23;20016;-77
2022/11/30 02:23:27;;;;;;;0.00;0.00;;;;;;;5.15;100.00;100992.59;6215228;23;20008;-77
2022/11/30 02:26:11;;;;;;;0.00;0.00;;;;;;;5.10;100.00;100983.47;6215208;23;20039;-77
2022/11/30 02:29:11;;;;;;;0.00;0.00;;;;;;;5.04;100.00;100974.34;6212723;23;20035;-77
2022/11/30 02:31:47;;;;;;;0.00;0.00;;;;;;;4.93;100.00;100977.72;6217568;23;20007;-77
2022/11/30 02:34:16;;;;;;;0.00;0.00;;;;;;;5.00;100.00;100990.19;6243601;23;20004;-77
2022/11/30 02:36:45;;;;;;;0.00;0.00;;;;;;;5.00;100.00;100978.50;6217280;23;20004;-78
2022/11/30 02:39:11;;;;;;;0.10;0.10;;;;;;;4.95;100.00;100976.44;6215241;23;20770;-78
2022/11/30 02:41:40;;;;;;;0.00;0.00;;;;;;;4.92;100.00;100982.31;6218426;23;20026;-76
2022/11/30 02:44:09;;;;;;;0.00;0.00;;;;;;;4.93;100.00;100986.66;6194545;22;20016;-76
2022/11/30 02:46:46;;;;;;;0.00;0.00;;;;;;;5.04;100.00;100980.56;6219038;23;20008;-79
2022/11/30 02:49:19;;;;;;;0.00;0.00;;;;;;;5.17;100.00;100984.25;6211572;23;20004;-78
2022/11/30 02:51:46;;;;;;;0.00;0.00;;;;;;;5.07;100.00;100980.13;6216175;23;20041;-78
2022/11/30 02:54:11;;;;;;;0.10;0.10;;;;;;;4.96;100.00;100975.38;6184821;23;20039;-79
2022/11/30 02:56:37;;;;;;;0.10;0.10;;;;;;;4.87;100.00;100980.22;6167492;23;20011;-78
2022/11/30 02:59:03;;;;;;;0.00;0.00;;;;;;;4.90;100.00;100989.81;6162511;23;20015;-79
2022/11/30 03:01:28;;;;;;;0.00;0.00;;;;;;;4.99;100.00;100993.94;6215494;23;20395;-77
2022/11/30 03:03:54;;;;;;;0.00;0.00;;;;;;;5.10;100.00;100994.31;6189546;23;20008;-77
2022/11/30 03:06:19;;;;;;;0.00;0.00;;;;;;;5.22;100.00;100998.81;6187499;23;20004;-77
2022/11/30 03:08:45;;;;;;;0.00;0.00;;;;;;;5.29;100.00;100995.28;6191049;23;20087;-78
2022/11/30 03:11:10;;;;;;;0.05;0.05;;;;;;;5.35;100.00;100992.50;6186442;23;20091;-77
2022/11/30 03:13:35;;;;;;;0.00;0.00;;;;;;;5.41;100.00;101001.66;6214185;23;20080;-77
2022/11/30 03:16:08;;;;;;;0.00;0.00;;;;;;;5.35;100.00;100991.69;6209238;23;20004;-79
2022/11/30 03:18:38;;;;;;;0.00;0.00;;;;;;;5.28;100.00;100977.34;6213362;23;20081;-77
2022/11/30 03:21:11;;;;;;;0.10;0.10;;;;;;;5.21;100.00;100993.63;6213659;23;20008;-77
2022/11/30 03:23:37;;;;;;;0.00;0.00;;;;;;;4.98;100.00;100986.88;6237416;22;20000;-78
2022/11/30 03:26:09;;;;;;;0.00;0.00;;;;;;;4.76;100.00;100990.91;6224569;23;20088;-76
2022/11/30 03:28:36;;;;;;;0.00;0.00;;;;;;;4.53;100.00;100986.81;6197318;23;20008;-75
2022/11/30 03:31:02;;;;;;;0.00;0.00;;;;;;;4.40;100.00;100984.13;6214949;23;20032;-75
2022/11/30 03:33:27;;;;;;;0.00;0.00;;;;;;;4.33;100.00;100995.78;6215799;23;20075;-76
2022/11/30 03:36:01;;;;;;;0.10;0.10;;;;;;;4.37;100.00;100991.63;6212506;23;20521;-78
2022/11/30 03:38:36;;;;;;;0.10;0.10;;;;;;;4.61;100.00;101000.09;6212178;23;20110;-77
2022/11/30 03:41:15;;;;;;;0.00;0.00;;;;;;;4.84;100.00;101006.94;6215311;23;20008;-76
2022/11/30 03:43:53;;;;;;;0.00;0.00;;;;;;;5.10;100.00;101000.56;6238029;23;19988;-75
2022/11/30 03:46:18;;;;;;;0.00;0.00;;;;;;;5.22;100.00;101003.44;6213908;23;20023;-77
2022/11/30 03:48:44;;;;;;;0.00;0.00;;;;;;;5.49;100.00;101014.13;6161883;23;20083;-76
2022/11/30 03:51:11;;;;;;;0.10;0.10;;;;;;;5.61;100.00;101006.97;6191164;23;20312;-77
2022/11/30 03:53:37;;;;;;;0.00;0.00;;;;;;;5.62;100.00;101014.03;6187163;23;20008;-77
2022/11/30 03:56:06;;;;;;;0.10;0.10;;;;;;;5.54;100.00;101011.59;6190918;23;20142;-78
2022/11/30 03:58:31;;;;;;;0.00;0.00;;;;;;;5.55;100.00;101018.69;6237858;23;19996;-77
2022/11/30 04:01:12;;;;;;;0.00;0.00;;;;;;;5.51;100.00;101018.28;6242178;23;20007;-77
2022/11/30 04:03:38;;;;;;;0.00;0.00;;;;;;;5.48;100.00;101015.19;6212159;23;20010;-78
2022/11/30 04:06:05;;;;;;;0.00;0.00;;;;;;;5.45;100.00;101012.88;6241509;23;20011;-77
2022/11/30 04:08:31;;;;;;;0.00;0.00;;;;;;;5.46;100.00;101023.56;6213408;23;20051;-78
2022/11/30 04:10:58;;;;;;;0.00;0.00;;;;;;;5.44;100.00;101016.69;6212540;23;20095;-78
2022/11/30 04:13:24;;;;;;;0.00;0.00;;;;;;;5.37;100.00;101009.41;6191173;23;20008;-77
2022/11/30 04:15:51;;;;;;;0.00;0.00;;;;;;;5.39;100.00;101012.72;6212029;23;20000;-77
2022/11/30 04:18:18;;;;;;;0.00;0.00;;;;;;;5.35;100.00;101013.38;6216249;23;20007;-77
2022/11/30 04:20:48;;;;;;;0.00;0.00;;;;;;;5.35;100.00;101010.66;6240043;23;20030;-78
2022/11/30 04:23:14;;;;;;;0.00;0.00;;;;;;;5.34;100.00;101015.25;6216056;23;20011;-77
2022/11/30 04:25:40;;;;;;;0.00;0.00;;;;;;;5.33;100.00;101010.88;6238583;23;20628;-78
2022/11/30 04:28:07;;;;;;;0.00;0.00;;;;;;;5.38;100.00;101021.91;6217958;23;20056;-78
2022/11/30 04:30:33;;;;;;;0.00;0.00;;;;;;;5.35;100.00;101016.09;6243898;23;20027;-78
2022/11/30 04:32:59;;;;;;;0.05;0.05;;;;;;;5.32;100.00;101011.94;6238045;23;20058;-76
2022/11/30 04:35:25;;;;;;;0.00;0.00;;;;;;;5.28;100.00;101018.81;6215537;23;19996;-78
2022/11/30 04:37:50;;;;;;;0.10;0.10;;;;;;;5.27;100.00;101022.59;6161499;23;20011;-76
2022/11/30 04:40:21;;;;;;;0.00;0.00;;;;;;;5.29;100.00;101017.78;6190498;23;20012;-76
2022/11/30 04:42:47;;;;;;;0.00;0.00;;;;;;;5.23;100.00;101021.38;6236931;23;20004;-76
2022/11/30 04:45:12;;;;;;;0.10;0.10;;;;;;;5.15;100.00;101019.72;6257025;22;20080;-78
2022/11/30 04:47:39;;;;;;;0.00;0.00;;;;;;;5.21;100.00;101042.44;6244801;22;20096;-77
2022/11/30 04:50:07;;;;;;;0.10;0.10;;;;;;;5.18;100.00;101053.72;6240553;22;20008;-78
2022/11/30 04:52:33;;;;;;;0.00;0.00;;;;;;;5.09;100.00;101041.44;6246910;22;19999;-79
2022/11/30 04:54:58;;;;;;;0.10;0.10;;;;;;;5.18;100.00;101040.16;6244147;22;20078;-78
2022/11/30 04:57:24;;;;;;;0.00;0.00;;;;;;;5.19;100.00;101044.53;6223260;22;20004;-79
2022/11/30 04:59:50;;;;;;;0.08;0.08;;;;;;;5.06;100.00;101032.69;6244449;22;20138;-78
2022/11/30 05:02:16;;;;;;;0.00;0.00;;;;;;;5.21;100.00;101056.00;6274420;22;20079;-78
2022/11/30 05:04:41;;;;;;;0.05;0.05;;;;;;;5.23;100.00;101053.91;6195103;22;20035;-79
2022/11/30 05:07:07;;;;;;;0.03;0.03;;;;;;;5.27;100.00;101055.16;6240779;22;20019;-79
2022/11/30 05:09:32;;;;;;;0.10;0.10;;;;;;;5.29;100.00;101058.47;6273660;22;20010;-77
2022/11/30 05:11:58;;;;;;;0.00;0.00;;;;;;;5.20;100.00;101038.91;6213791;22;20011;-77
2022/11/30 05:14:23;;;;;;;0.03;0.03;;;;;;;5.29;100.00;101058.47;6248167;22;20011;-78
2022/11/30 05:16:51;;;;;;;0.00;0.00;;;;;;;5.35;100.00;101054.88;6215633;22;20019;-78
2022/11/30 05:19:17;;;;;;;0.10;0.10;;;;;;;5.38;100.00;101051.75;6219661;22;20320;-78
2022/11/30 05:21:43;;;;;;;0.00;0.00;;;;;;;5.42;100.00;101052.16;6272851;22;20072;-79
2022/11/30 05:24:09;;;;;;;0.00;0.00;;;;;;;5.47;100.00;101048.78;6240518;22;20064;-77
2022/11/30 05:26:36;;;;;;;0.00;0.00;;;;;;;5.45;100.00;101050.88;6246262;22;20037;-77
2022/11/30 05:29:05;;;;;;;0.00;0.00;;;;;;;5.52;100.00;101051.66;6240590;22;20019;-76
2022/11/30 05:31:32;;;;;;;0.00;0.00;;;;;;;5.52;100.00;101051.66;6273185;22;20026;-77
2022/11/30 05:33:57;;;;;;;0.00;0.00;;;;;;;5.49;100.00;101050.25;6240902;22;20018;-77
2022/11/30 05:36:23;;;;;;;0.03;0.03;;;;;;;5.41;100.00;101054.00;6220374;22;20007;-76
2022/11/30 05:38:49;;;;;;;0.00;0.00;;;;;;;5.36;100.00;101051.13;6241820;22;20004;-78
2022/11/30 05:41:14;;;;;;;0.00;0.00;;;;;;;5.37;100.00;101058.25;6242325;22;20365;-78
2022/11/30 05:43:40;;;;;;;0.00;0.00;;;;;;;5.33;100.00;101043.44;6220447;22;20011;-76
2022/11/30 05:46:07;;;;;;;0.00;0.00;;;;;;;5.34;100.00;101050.50;6239567;22;20454;-77
2022/11/30 05:48:33;;;;;;;0.00;0.00;;;;;;;5.38;100.00;101056.34;6217563;22;20031;-79
2022/11/30 05:51:14;;;;;;;0.00;0.00;;;;;;;5.40;100.00;101065.94;6246062;22;20488;-79
2022/11/30 05:53:40;;;;;;;0.00;0.00;;;;;;;5.39;100.00;101058.03;6269028;22;20006;-75
2022/11/30 05:56:11;;;;;;;0.00;0.00;;;;;;;5.32;100.00;101043.66;6243160;22;20008;-77
2022/11/30 05:58:37;;;;;;;0.00;0.00;;;;;;;5.43;100.00;101059.22;6242606;22;20008;-77
2022/11/30 06:01:03;;;;;;;0.00;0.00;;;;;;;5.62;100.00;101081.06;6243834;22;20437;-78
2022/11/30 06:03:30;;;;;;;0.00;0.00;;;;;;;5.59;100.00;101069.59;6238759;22;20377;-78
2022/11/30 06:05:55;;;;;;;0.00;0.00;;;;;;;5.55;100.00;101075.69;6245586;22;20083;-77
2022/11/30 06:08:21;;;;;;;0.00;0.00;;;;;;;5.50;100.00;101075.47;6189401;22;20521;-76
2022/11/30 06:10:47;;;;;;;0.10;0.10;;;;;;;5.45;100.00;101072.56;6244556;22;20152;-76
2022/11/30 06:13:12;;;;;;;0.00;0.00;;;;;;;5.44;100.00;101074.47;6217150;22;20016;-78
2022/11/30 06:15:39;;;;;;;0.05;0.05;;;;;;;5.39;100.00;101080.53;6241085;22;20008;-76
2022/11/30 06:18:05;;;;;;;0.00;0.00;;;;;;;5.38;100.00;101083.47;6271462;22;20049;-76
2022/11/30 06:20:31;;;;;;;0.00;0.00;;;;;;;5.36;100.00;101080.97;6240679;22;20094;-77
2022/11/30 06:22:57;;;;;;;0.00;0.00;;;;;;;5.38;100.00;101073.44;6220117;22;20100;-76
2022/11/30 06:25:26;;;;;;;0.10;0.10;;;;;;;5.47;100.00;101070.50;6242985;22;20035;-76
2022/11/30 06:27:54;;;;;;;0.00;0.00;;;;;;;5.45;100.00;101061.72;6270567;22;20007;-75
2022/11/30 06:30:20;;;;;;;0.00;0.00;;;;;;;5.37;100.00;101058.25;6241005;22;20016;-74
2022/11/30 06:32:46;;;;;;;0.00;0.00;;;;;;;5.38;100.00;101051.75;6243572;22;20004;-78
2022/11/30 06:35:12;;;;;;;0.00;0.00;;;;;;;5.50;100.00;101064.63;6220856;22;20027;-80
2022/11/30 06:37:37;;;;;;;0.00;0.00;;;;;;;5.55;100.00;101070.25;6236369;22;20705;-76
2022/11/30 06:40:03;;;;;;;0.00;0.00;;;;;;;5.54;100.00;101069.41;6220526;22;20085;-75
2022/11/30 06:42:30;;;;;;;0.00;0.00;;;;;;;5.49;100.00;101081.94;6214007;22;20418;-76
2022/11/30 06:44:55;;;;;;;0.00;0.00;;;;;;;5.47;100.00;101084.06;6242143;22;20054;-77
2022/11/30 06:47:21;;;;;;;0.00;0.00;;;;;;;5.47;100.00;101075.91;6219647;22;20005;-76
2022/11/30 06:49:46;;;;;;;0.00;0.00;;;;;;;5.48;100.00;101081.13;6213007;22;20061;-77
2022/11/30 06:52:12;;;;;;;0.00;0.00;;;;;;;5.50;100.00;101070.06;6245646;22;20003;-76
2022/11/30 06:54:37;;;;;;;0.00;0.00;;;;;;;5.54;100.00;101082.16;6191172;22;20337;-76
2022/11/30 06:57:02;;;;;;;0.08;0.08;;;;;;;5.57;100.00;101076.28;6215391;22;20004;-77
2022/11/30 06:59:28;;;;;;;0.00;0.00;;;;;;;5.58;100.00;101088.81;6194303;22;20010;-76
2022/11/30 07:01:53;;;;;;;0.10;0.10;;;;;;;5.52;100.00;101089.66;6267155;22;20086;-76
2022/11/30 07:04:19;;;;;;;0.05;0.05;;;;;;;5.49;100.00;101090.94;6219824;22;19999;-76
2022/11/30 07:06:47;;;;;;;0.03;0.03;;;;;;;5.44;100.00;101093.44;6214216;22;20014;-78
2022/11/30 07:09:12;;;;;;;0.00;0.00;;;;;;;5.50;100.00;101102.59;6219917;22;20011;-77
2022/11/30 07:11:38;;;;;;;0.10;0.10;;;;;;;5.51;100.00;101107.00;6268197;22;20307;-76
2022/11/30 07:14:06;;;;;;;0.00;0.00;;;;;;;5.54;100.00;101106.56;6269336;22;20236;-76
2022/11/30 07:16:32;;;;;;;0.00;0.00;;;;;;;5.60;100.00;101120.06;6273056;22;20367;-76
2022/11/30 07:18:57;;;;;;;0.00;0.00;;;;;;;5.69;100.00;101106.28;6188794;22;20004;-77
2022/11/30 07:21:22;;;;;;;0.00;0.00;;;;;;;5.82;100.00;101117.06;6218288;22;20065;-76
2022/11/30 07:26:32;;;;;;;0.00;0.00;;;;;;;6.20;100.00;101118.09;6271400;22;20014;-77
2022/11/30 07:28:57;;;;;;;0.00;0.00;;;;;;;6.31;100.00;101120.13;6213981;22;20330;-77
2022/11/30 07:31:28;;;;;;;0.08;0.08;;;;;;;6.36;100.00;101114.84;6191981;22;20004;-76
2022/11/30 07:33:55;;;;;;;0.00;0.00;;;;;;;6.44;100.00;101114.56;6264719;22;20643;-79
2022/11/30 07:36:22;;;;;;;0.08;0.08;;;;;;;6.49;100.00;101122.06;6218779;22;20093;-78
2022/11/30 07:38:48;;;;;;;0.03;0.03;;;;;;;6.45;100.00;101127.13;6269064;22;20002;-77
2022/11/30 07:41:13;;;;;;;0.10;0.10;;;;;;;6.42;100.00;101127.53;6266618;22;20082;-77
2022/11/30 07:43:46;;;;;;;0.00;0.00;;;;;;;6.26;100.00;101130.81;6218623;22;20004;-79
2022/11/30 07:46:14;;;;;;;0.00;0.00;;;;;;;6.23;100.00;101147.53;6212615;22;20030;-77
2022/11/30 07:48:39;;;;;;;0.00;0.00;;;;;;;6.15;100.00;101140.50;6242567;22;20038;-76
2022/11/30 07:51:08;;;;;;;0.00;0.00;;;;;;;6.13;100.00;101144.47;6268997;22;20000;-77
2022/11/30 07:53:34;;;;;;;0.00;0.00;;;;;;;6.16;100.00;101144.03;6242726;22;20035;-76
2022/11/30 07:56:14;;;;;;;0.00;0.00;;;;;;;6.21;100.00;101136.91;6185986;22;20014;-80
2022/11/30 07:58:49;;;;;;;0.00;0.00;;;;;;;6.37;100.00;101145.56;6242225;22;20330;-79
2022/11/30 08:01:18;;;;;;;0.08;0.08;;;;;;;6.47;100.00;101157.59;6218108;22;20089;-79
2022/11/30 08:03:44;;;;;;;0.00;0.00;;;;;;;6.54;100.00;101145.84;6241646;22;20007;-78
2022/11/30 08:06:20;;;;;;;0.00;0.00;;;;;;;6.60;100.00;101150.38;6241034;22;20012;-78
2022/11/30 08:08:50;;;;;;;0.00;0.00;;;;;;;6.68;100.00;101154.72;6270657;22;19999;-74
2022/11/30 08:11:21;;;;;;;0.00;0.00;;;;;;;6.54;100.00;101146.69;6269050;22;20094;-75
2022/11/30 08:13:46;;;;;;;0.10;0.10;;;;;;;6.42;100.00;101149.28;6266720;22;20003;-75
2022/11/30 08:16:19;;;;;;;0.00;0.00;;;;;;;6.33;100.00;101142.44;6269471;22;20296;-76
2022/11/30 08:18:54;;;;;;;0.10;0.10;;;;;;;6.24;100.00;101151.94;6237068;22;19999;-75
2022/11/30 08:21:25;;;;;;;0.00;0.00;;;;;;;6.22;100.00;101154.88;6272229;22;20008;-75
2022/11/30 08:23:55;;;;;;;0.10;0.10;;;;;;;6.15;100.00;101139.66;6239197;22;20065;-75
2022/11/30 08:26:26;;;;;;;0.00;0.00;;;;;;;6.17;100.00;101140.28;6243067;22;20084;-76
2022/11/30 08:28:54;;;;;;;0.00;0.00;;;;;;;6.17;100.00;101153.84;6238292;22;20488;-76
2022/11/30 08:31:23;;;;;;;0.00;0.00;;;;;;;6.20;100.00;101162.38;6271026;22;20008;-76
2022/11/30 08:33:55;;;;;;;0.00;0.00;;;;;;;6.15;100.00;101158.66;6241599;22;20004;-75
2022/11/30 08:36:25;;;;;;;0.00;0.00;;;;;;;6.06;100.00;101161.66;6273079;22;20422;-76
2022/11/30 08:38:50;;;;;;;0.00;0.00;;;;;;;6.02;100.00;101160.41;6214691;22;20007;-75
2022/11/30 08:41:18;;;;;;;0.00;0.00;;;;;;;5.98;100.00;101161.88;6195810;22;20462;-76
2022/11/30 08:43:45;;;;;;;0.03;0.03;;;;;;;6.03;100.00;101159.38;6268105;22;20058;-75
2022/11/30 08:46:14;;;;;;;0.03;0.03;;;;;;;5.99;100.00;101160.84;6191422;23;20265;-75
2022/11/30 08:48:43;;;;;;;0.00;0.00;;;;;;;6.00;100.00;101151.66;6189559;23;20056;-76
2022/11/30 08:51:11;;;;;;;0.00;0.00;;;;;;;6.03;100.00;101156.66;6187495;23;20008;-76
2022/11/30 08:53:37;;;;;;;0.10;0.10;;;;;;;6.16;100.00;101165.75;6209438;23;20435;-76
2022/11/30 08:56:13;;;;;;;0.00;0.00;;;;;;;6.26;100.00;101171.53;6213654;23;19996;-77
2022/11/30 08:58:41;;;;;;;0.00;0.00;;;;;;;6.25;100.00;101169.88;6184782;23;20008;-76
2022/11/30 09:01:07;;;;;;;0.00;0.00;;;;;;;6.36;100.00;101176.50;6207473;23;20431;-76
2022/11/30 09:03:32;;;;;;;0.00;0.00;;;;;;;6.33;100.00;101168.78;6214779;23;20043;-76
2022/11/30 09:06:04;;;;;;;0.10;0.10;;;;;;;6.43;100.00;101182.72;6183950;23;20008;-76
2022/11/30 09:08:33;;;;;;;0.03;0.03;;;;;;;6.46;100.00;101188.53;6239639;23;20011;-76
2022/11/30 09:11:12;;;;;;;0.00;0.00;;;;;;;6.45;100.00;101180.59;6242225;23;20345;-76
2022/11/30 09:13:44;;;;;;;0.00;0.00;;;;;;;6.49;100.00;101186.44;6205548;23;20331;-77
2022/11/30 09:16:13;;;;;;;0.00;0.00;;;;;;;6.46;100.00;101182.28;6217505;23;20004;-76
2022/11/30 09:18:40;;;;;;;0.00;0.00;;;;;;;6.50;100.00;101188.09;6207868;23;20004;-76
2022/11/30 09:21:10;;;;;;;0.00;0.00;;;;;;;6.47;100.00;101183.97;6217142;23;20008;-75
2022/11/30 09:23:36;;;;;;;0.03;0.03;;;;;;;6.53;100.00;101193.94;6209433;23;20004;-75
2022/11/30 09:26:07;;;;;;;0.10;0.10;;;;;;;6.55;100.00;101193.72;6238899;23;20370;-76
2022/11/30 09:28:34;;;;;;;0.00;0.00;;;;;;;6.63;100.00;101196.16;6214967;23;20003;-76
2022/11/30 09:31:11;;;;;;;0.00;0.00;;;;;;;6.72;100.00;101213.88;6237002;23;20066;-76
2022/11/30 09:33:38;;;;;;;0.00;0.00;;;;;;;6.70;100.00;101194.25;6213184;23;20014;-75
2022/11/30 09:36:06;;;;;;;0.10;0.10;;;;;;;6.85;100.00;101206.63;6233855;23;20015;-76
2022/11/30 09:38:42;;;;;;;0.00;0.00;;;;;;;6.91;100.00;101203.88;6191889;23;20043;-76
2022/11/30 09:41:24;;;;;;;0.00;0.00;;;;;;;7.01;100.00;101216.13;6207439;23;20065;-76
2022/11/30 09:44:13;;;;;;;0.00;0.00;;;;;;;7.04;100.00;101219.25;6214362;23;20027;-76
2022/11/30 09:46:48;;;;;;;0.00;0.00;;;;;;;7.03;100.00;101220.28;6216038;23;20012;-77
2022/11/30 09:49:29;;;;;;;0.03;0.03;;;;;;;7.11;100.00;101217.31;6211912;23;20038;-77
2022/11/30 09:52:04;;;;;;;0.00;0.00;;;;;;;7.16;100.00;101230.22;6239247;23;20022;-76
2022/11/30 09:54:44;;;;;;;0.00;0.00;;;;;;;7.15;100.00;101218.53;6211626;23;20398;-75
2022/11/30 09:57:28;;;;;;;0.03;0.03;;;;;;;7.28;100.00;101238.47;6239386;23;19998;-76
2022/11/30 09:59:58;;;;;;;0.00;0.00;;;;;;;7.33;100.00;101235.94;6209368;23;20000;-76
2022/11/30 10:02:29;;;;;;;0.10;0.10;;;;;;;7.38;100.00;101236.06;6184662;23;20004;-76
2022/11/30 10:04:56;;;;;;;0.00;0.00;;;;;;;7.40;100.00;101233.94;6208566;23;20476;-77
2022/11/30 10:07:33;;;;;;;0.00;0.00;;;;;;;7.45;100.00;101239.56;6213295;23;20000;-77
2022/11/30 10:10:36;;;;;;;0.00;0.00;;;;;;;7.54;100.00;101242.00;6206631;23;20451;-77
2022/11/30 10:13:30;;;;;;;0.00;0.00;;;;;;;7.58;100.00;101243.19;6209728;23;20004;-76
2022/11/30 10:16:11;;;;;;;0.00;0.00;;;;;;;7.60;100.00;101236.47;6212550;23;20410;-77
2022/11/30 10:18:40;;;;;;;0.00;0.00;;;;;;;7.69;100.00;101234.28;6209959;23;20092;-77
2022/11/30 10:21:26;;;;;;;0.00;0.00;;;;;;;7.79;100.00;101248.19;6214197;23;20008;-77
2022/11/30 10:24:33;;;;;;;0.00;0.00;;;;;;;7.94;100.00;101249.69;6240440;23;20076;-76
2022/11/30 10:27:11;;;;;;;0.00;0.00;;;;;;;7.94;100.00;101241.53;6207706;23;20054;-77
2022/11/30 10:29:40;;;;;;;0.00;0.00;;;;;;;7.94;100.00;101244.25;6214235;23;20000;-75
2022/11/30 10:32:21;;;;;;;0.00;0.00;;;;;;;8.06;100.00;101250.63;6208909;23;20011;-76
2022/11/30 10:35:14;;;;;;;0.08;0.08;;;;;;;8.03;100.00;101251.03;6214306;23;20027;-76
2022/11/30 10:37:41;;;;;;;0.00;0.00;;;;;;;7.99;100.00;101244.41;6211690;23;20004;-78
2022/11/30 10:40:36;;;;;;;0.00;0.00;;;;;;;8.01;100.00;101255.91;6214373;23;20004;-78
2022/11/30 10:43:23;;;;;;;0.00;0.00;;;;;;;8.00;100.00;101251.50;6213484;23;20000;-76
2022/11/30 10:45:58;;;;;;;0.00;0.00;;;;;;;7.86;100.00;101248.13;6257936;22;20087;-78
2022/11/30 10:48:35;;;;;;;0.00;0.00;;;;;;;7.86;100.00;101256.28;6195979;22;20035;-77
2022/11/30 10:51:02;;;;;;;0.00;0.00;;;;;;;7.82;100.00;101244.19;6244848;22;20339;-76
2022/11/30 10:53:27;;;;;;;0.00;0.00;;;;;;;7.80;100.00;101247.13;6238224;22;20007;-77
2022/11/30 10:55:56;;;;;;;0.00;0.00;;;;;;;7.83;100.00;101249.41;6218420;22;20330;-77
2022/11/30 10:58:37;;;;;;;0.00;0.00;;;;;;;7.90;100.00;101245.75;6238551;22;20007;-76
2022/11/30 11:01:08;;;;;;;0.00;0.00;;;;;;;7.85;100.00;101239.09;6270034;22;20000;-76
2022/11/30 11:03:34;;;;;;;0.00;0.00;;;;;;;7.98;100.00;101253.63;6235249;22;20082;-76
2022/11/30 11:06:15;;;;;;;0.00;0.00;;;;;;;8.02;100.00;101254.84;6271778;22;19995;-76
2022/11/30 11:08:44;;;;;;;0.00;0.00;;;;;;;8.04;100.00;101245.41;6262522;22;20331;-76
2022/11/30 11:11:37;;;;;;;0.10;0.10;;;;;;;8.14;100.00;101257.63;6246569;22;20007;-77
2022/11/30 11:14:24;;;;;;;0.00;0.00;;;;;;;8.23;100.00;101272.59;6241467;22;20082;-78
2022/11/30 11:17:16;;;;;;;0.00;0.00;;;;;;;8.21;100.00;101261.94;6237918;22;20153;-77
2022/11/30 11:19:42;;;;;;;0.00;0.00;;;;;;;8.31;100.00;101274.16;6226068;22;20134;-78
2022/11/30 11:22:21;;;;;;;0.00;0.00;;;;;;;8.37;100.00;101273.25;6264154;22;20000;-77
2022/11/30 11:24:58;;;;;;;0.00;0.00;;;;;;;8.40;100.00;101278.25;6242979;22;20065;-76
2022/11/30 11:27:30;;;;;;;0.00;0.00;;;;;;;8.40;100.00;101272.78;6239065;22;20012;-76
2022/11/30 11:30:07;;;;;;;0.00;0.00;;;;;;;8.49;100.00;101276.88;6271806;22;20079;-77
2022/11/30 11:32:36;;;;;;;0.00;0.00;;;;;;;8.59;100.00;101267.34;6269305;22;20023;-76
2022/11/30 11:35:01;;;;;;;0.00;0.00;;;;;;;8.79;100.00;101258.84;6212958;22;20035;-77
2022/11/30 11:37:36;;;;;;;0.00;0.00;;;;;;;8.96;100.00;101256.25;6196327;22;20377;-76
2022/11/30 11:40:05;;;;;;;0.00;0.00;;;;;;;9.12;100.00;101263.75;6242922;22;20003;-77
2022/11/30 11:42:35;;;;;;;0.00;0.00;;;;;;;9.38;100.00;101261.63;6242230;22;20055;-77